Time;durP1;ratioP1;P1;durP2;ratioP2;P2;SDS_P1;SDS_P2;PMS_P1;PMS_P2;Temp;Humidity;BMP_temperature;BMP_pressure;BME280_temperature;BME280_humidity;BME280_pressure;Samples;Min_cycle;Max_cycle;Signal;HPM_P1;HPM_P2
2021/12/15 00:01:59;;;;;;;56.10;47.10;;;;;;;4.69;80.81;101582.22;108822;1276;21972;-76
2021/12/15 00:04:30;;;;;;;51.10;45.50;;;;;;;4.70;80.82;101579.72;108977;1275;22074;-75
2021/12/15 00:06:59;;;;;;;55.80;44.60;;;;;;;4.71;80.77;101575.30;109156;1273;21983;-76
2021/12/15 00:09:29;;;;;;;54.80;46.90;;;;;;;4.72;80.71;101571.08;108855;1276;23748;-75
2021/12/15 00:12:03;;;;;;;54.60;44.40;;;;;;;4.72;80.79;101570.02;109002;1274;21970;-76
2021/12/15 00:14:34;;;;;;;50.00;44.50;;;;;;;4.72;80.72;101574.55;108849;1278;23075;-76
2021/12/15 00:17:08;;;;;;;53.70;43.90;;;;;;;4.71;80.79;101575.49;108973;1274;22009;-76
2021/12/15 00:19:39;;;;;;;53.50;44.50;;;;;;;4.73;80.81;101570.34;108988;1275;22004;-76
2021/12/15 00:22:08;;;;;;;53.30;44.00;;;;;;;4.74;80.80;101564.27;108548;1281;23691;-76
2021/12/15 00:24:38;;;;;;;55.40;45.30;;;;;;;4.77;80.82;101565.02;108546;1276;23146;-75
2021/12/15 00:27:10;;;;;;;;;;;;;;;4.77;80.69;101564.64;108532;1281;22136;-75
2021/12/15 00:29:41;;;;;;;58.10;46.40;;;;;;;4.69;80.77;101567.05;108618;1280;22057;-76
2021/12/15 00:32:10;;;;;;;55.00;44.40;;;;;;;4.69;80.82;101566.52;108638;1281;22501;-76
2021/12/15 00:34:40;;;;;;;50.80;42.80;;;;;;;4.72;80.94;101572.60;108542;1281;23704;-78
2021/12/15 00:37:10;;;;;;;60.00;45.00;;;;;;;4.76;80.93;101579.39;108381;1285;21998;-75
2021/12/15 00:39:39;;;;;;;59.80;47.10;;;;;;;4.77;80.90;101582.95;108330;1282;22487;-75
2021/12/15 00:42:11;;;;;;;63.20;47.80;;;;;;;4.79;80.99;101591.90;108539;1282;22011;-76
2021/12/15 00:44:43;;;;;;;;;;;;;;;4.79;80.81;101591.90;108510;1281;23042;-75
2021/12/15 00:47:12;;;;;;;66.10;45.70;;;;;;;4.72;80.86;101592.92;108387;1282;23693;-76
2021/12/15 00:49:42;;;;;;;69.60;48.00;;;;;;;4.72;81.07;101594.28;108576;1282;22341;-76
2021/12/15 00:52:12;;;;;;;70.80;50.30;;;;;;;4.75;80.95;101599.70;108395;1283;21990;-76
2021/12/15 00:54:41;;;;;;;74.40;51.40;;;;;;;4.77;80.87;101596.73;108473;1274;22922;-76
2021/12/15 00:57:10;;;;;;;78.10;50.50;;;;;;;4.80;80.97;101597.80;108808;1277;21978;-76
2021/12/15 00:59:39;;;;;;;82.30;52.60;;;;;;;4.82;81.04;101598.86;109098;1272;21988;-77
2021/12/15 01:02:09;;;;;;;84.20;53.20;;;;;;;4.85;81.09;101591.33;108824;1275;23704;-75
2021/12/15 01:04:39;;;;;;;85.40;54.40;;;;;;;4.89;81.15;101592.86;108362;1283;22107;-75
2021/12/15 01:07:10;;;;;;;82.70;52.70;;;;;;;4.91;81.18;101594.06;108472;1283;21996;-76
2021/12/15 01:09:56;;;;;;;90.50;55.70;;;;;;;4.94;81.21;101595.13;108403;1283;23622;-76
2021/12/15 01:14:30;;;;;;;92.30;54.00;;;;;;;4.96;81.15;101598.31;108515;1283;22059;-77
2021/12/15 01:21:21;;;;;;;84.80;53.50;;;;;;;4.94;81.05;101602.45;108411;1283;21985;-76
2021/12/15 01:23:50;;;;;;;81.90;55.30;;;;;;;4.95;81.24;101602.36;108774;1275;22100;-75
2021/12/15 01:26:19;;;;;;;88.30;55.80;;;;;;;4.97;81.29;101599.78;108847;1274;22097;-75
2021/12/15 01:28:49;;;;;;;76.80;51.40;;;;;;;5.00;81.32;101596.14;109031;1275;23781;-77
2021/12/15 01:31:21;;;;;;;80.50;51.60;;;;;;;5.01;81.33;101595.35;108902;1274;23034;-76
2021/12/15 01:33:52;;;;;;;76.80;50.80;;;;;;;5.03;81.31;101599.27;108905;1275;21984;-76
2021/12/15 01:36:22;;;;;;;74.50;52.10;;;;;;;5.03;81.29;101596.13;108414;1281;23657;-75
2021/12/15 01:38:52;;;;;;;80.00;53.60;;;;;;;5.03;81.23;101598.57;108500;1280;24304;-75
2021/12/15 01:41:24;;;;;;;79.00;52.80;;;;;;;5.01;81.21;101599.70;108497;1281;22077;-75
2021/12/15 01:46:55;;;;;;;70.20;48.10;;;;;;;4.98;81.25;101596.23;108478;1281;23128;-76
2021/12/15 01:49:37;;;;;;;75.60;50.00;;;;;;;4.97;81.38;101602.26;108505;1281;23631;-76
2021/12/15 01:52:24;;;;;;;81.10;51.30;;;;;;;4.96;81.37;101605.25;108308;1279;170316;-77
2021/12/15 01:55:04;;;;;;;73.20;50.00;;;;;;;4.94;81.25;101605.77;108898;1274;21977;-76
2021/12/15 01:57:35;;;;;;;70.20;48.30;;;;;;;4.94;81.45;101607.13;108401;1282;23644;-76
2021/12/15 02:00:31;;;;;;;65.90;46.50;;;;;;;4.96;81.66;101606.49;108519;1280;23583;-76
2021/12/15 02:03:01;;;;;;;64.40;46.30;;;;;;;4.97;81.48;101607.85;108504;1281;23068;-75
2021/12/15 02:05:32;;;;;;;70.20;49.10;;;;;;;4.96;81.47;101608.75;108421;1278;21980;-75
2021/12/15 02:08:04;;;;;;;64.00;46.70;;;;;;;4.98;81.65;101609.19;108537;1281;21985;-75
2021/12/15 02:10:38;;;;;;;69.00;49.20;;;;;;;4.98;81.59;101610.77;108562;1281;22820;-75
2021/12/15 02:13:15;;;;;;;65.20;46.70;;;;;;;4.97;81.52;101612.02;108521;1281;23685;-75
2021/12/15 02:15:52;;;;;;;60.70;44.50;;;;;;;4.99;81.67;101611.06;108610;1275;24310;-75
2021/12/15 02:18:28;;;;;;;63.80;45.10;;;;;;;4.99;81.63;101612.77;108840;1275;22413;-76
2021/12/15 02:21:16;;;;;;;65.50;48.90;;;;;;;4.99;81.68;101613.30;108845;1276;23062;-75
2021/12/15 02:23:53;;;;;;;67.20;49.20;;;;;;;4.99;81.63;101614.16;108982;1275;22028;-75
2021/12/15 02:26:35;;;;;;;59.10;45.60;;;;;;;4.99;81.59;101618.19;108849;1274;23801;-75
2021/12/15 02:29:15;;;;;;;59.70;47.00;;;;;;;4.98;81.61;101622.63;109034;1275;21983;-76
2021/12/15 02:40:05;;;;;;;53.00;42.30;;;;;;;4.90;81.22;101627.64;109012;1275;22742;-75
2021/12/15 02:42:42;;;;;;;52.70;41.40;;;;;;;4.87;81.42;101627.34;109147;1273;21982;-75
2021/12/15 02:45:17;;;;;;;50.00;39.80;;;;;;;4.86;81.46;101627.92;108779;1278;22028;-75
2021/12/15 02:47:47;;;;;;;52.00;41.10;;;;;;;4.85;81.41;101624.35;108975;1275;23086;-75
2021/12/15 02:50:27;;;;;;;54.90;42.60;;;;;;;4.84;81.54;101628.05;108921;1275;23577;-75
2021/12/15 02:52:59;;;;;;;51.70;41.90;;;;;;;4.84;81.46;101624.42;108846;1278;23172;-76
2021/12/15 02:55:31;;;;;;;55.10;43.20;;;;;;;4.83;81.53;101624.13;108948;1275;22724;-76
2021/12/15 02:58:00;;;;;;;49.70;40.60;;;;;;;4.83;81.48;101624.84;108423;1281;23046;-76
2021/12/15 03:00:44;;;;;;;51.40;42.60;;;;;;;4.83;81.58;101627.41;108572;1280;22475;-75
2021/12/15 03:05:51;;;;;;;50.80;41.30;;;;;;;4.82;81.45;101630.65;108424;1281;22032;-75
2021/12/15 03:08:25;;;;;;;52.20;43.20;;;;;;;4.80;81.49;101630.58;108577;1280;21981;-75
2021/12/15 03:16:35;;;;;;;47.60;39.60;;;;;;;4.80;81.57;101629.58;108398;1281;22013;-76
2021/12/15 03:19:04;;;;;;;52.90;42.40;;;;;;;4.80;81.65;101637.73;108501;1282;21997;-76
2021/12/15 03:21:34;;;;;;;52.50;40.40;;;;;;;4.82;81.59;101644.25;108225;1287;22197;-76
2021/12/15 03:24:17;;;;;;;50.80;38.60;;;;;;;4.84;81.77;101645.02;107949;1290;22017;-76
2021/12/15 03:26:59;;;;;;;47.30;39.10;;;;;;;4.85;81.68;101649.95;107481;1295;22235;-75
2021/12/15 03:37:51;;;;;;;49.90;37.60;;;;;;;4.85;81.61;101662.58;107349;1295;22085;-75
2021/12/15 03:40:35;;;;;;;48.70;41.40;;;;;;;4.85;81.62;101662.04;107549;1294;23178;-75
2021/12/15 03:43:13;;;;;;;51.40;41.50;;;;;;;4.86;81.65;101669.34;108040;1288;23705;-75
2021/12/15 03:45:52;;;;;;;53.70;42.40;;;;;;;4.84;81.44;101672.05;108375;1280;21982;-76
2021/12/15 03:48:27;;;;;;;55.80;44.60;;;;;;;4.82;81.48;101676.91;108514;1280;21980;-76
2021/12/15 03:50:57;;;;;;;57.80;46.60;;;;;;;4.82;81.57;101678.96;108564;1281;23692;-76
2021/12/15 03:53:27;;;;;;;55.60;46.00;;;;;;;4.83;81.53;101675.80;108413;1281;23576;-76
2021/12/15 03:55:57;;;;;;;59.60;48.20;;;;;;;4.83;81.43;101676.16;108589;1278;21991;-76
2021/12/15 03:58:27;;;;;;;59.00;49.60;;;;;;;4.83;81.58;101677.38;109174;1274;22110;-76
2021/12/15 04:01:06;;;;;;;62.80;50.00;;;;;;;4.84;81.51;101675.58;108687;1280;22091;-76
2021/12/15 04:03:40;;;;;;;60.30;49.60;;;;;;;4.85;81.59;101674.61;108406;1280;21995;-76
2021/12/15 04:06:17;;;;;;;65.50;50.90;;;;;;;4.87;81.62;101680.61;108688;1281;21977;-75
2021/12/15 04:08:48;;;;;;;65.90;50.20;;;;;;;4.89;81.70;101681.84;108702;1280;22667;-75
2021/12/15 04:11:21;;;;;;;64.30;51.30;;;;;;;4.91;81.76;101681.70;108547;1280;21993;-75
2021/12/15 04:13:52;;;;;;;63.00;47.00;;;;;;;4.94;81.68;101680.16;108586;1281;22094;-75
2021/12/15 04:19:08;;;;;;;66.90;49.80;;;;;;;4.97;81.63;101682.77;108830;1275;22739;-76
2021/12/15 04:21:38;;;;;;;66.90;50.80;;;;;;;4.97;81.59;101682.41;108976;1275;23693;-75
2021/12/15 04:24:12;;;;;;;66.20;53.50;;;;;;;4.98;81.66;101687.04;108642;1281;22047;-75
2021/12/15 04:26:43;;;;;;;61.70;49.30;;;;;;;5.00;81.62;101684.86;108684;1280;22897;-75
2021/12/15 04:29:14;;;;;;;67.30;50.10;;;;;;;5.01;81.69;101680.73;108732;1281;23042;-75
2021/12/15 04:32:13;;;;;;;67.60;48.80;;;;;;;5.00;81.58;101670.12;108481;1281;21984;-76
2021/12/15 04:34:42;;;;;;;61.60;43.10;;;;;;;5.00;81.68;101666.15;108510;1281;23628;-75
2021/12/15 04:37:12;;;;;;;58.50;42.50;;;;;;;5.02;81.83;101666.53;108419;1281;23692;-75
2021/12/15 04:39:41;;;;;;;61.30;44.20;;;;;;;5.04;81.74;101666.55;108408;1282;22050;-75
2021/12/15 04:42:15;;;;;;;56.90;40.70;;;;;;;5.07;81.89;101668.48;108079;1287;22043;-75
2021/12/15 04:44:44;;;;;;;62.00;43.60;;;;;;;5.09;81.92;101665.71;108142;1288;22008;-75
2021/12/15 04:47:14;;;;;;;60.40;41.20;;;;;;;5.11;81.86;101667.11;108027;1288;22041;-75
2021/12/15 04:49:50;;;;;;;56.50;39.60;;;;;;;5.14;81.90;101670.63;108238;1283;23143;-75
2021/12/15 04:52:25;;;;;;;60.10;42.40;;;;;;;5.15;81.79;101679.10;108037;1288;22125;-75
2021/12/15 04:54:58;;;;;;;58.00;41.50;;;;;;;5.15;81.78;101682.42;107981;1288;21991;-76
2021/12/15 04:57:28;;;;;;;60.70;44.70;;;;;;;5.15;81.84;101681.38;108055;1288;22066;-75
2021/12/15 04:59:57;;;;;;;60.00;43.00;;;;;;;5.15;81.89;101686.59;108015;1288;22033;-75
2021/12/15 05:02:26;;;;;;;66.70;46.40;;;;;;;5.16;81.90;101687.07;108030;1288;23533;-76
2021/12/15 05:04:56;;;;;;;64.90;47.20;;;;;;;5.17;81.93;101689.08;108035;1288;23758;-75
2021/12/15 05:07:28;;;;;;;62.00;45.00;;;;;;;5.18;81.98;101694.27;108234;1282;23038;-76
2021/12/15 05:09:59;;;;;;;64.40;46.40;;;;;;;5.19;81.95;101688.24;108490;1278;21973;-76
2021/12/15 05:12:31;;;;;;;62.90;46.70;;;;;;;5.21;81.82;101695.17;108875;1277;23029;-75
2021/12/15 05:15:07;;;;;;;66.70;51.00;;;;;;;5.21;81.85;101696.05;108883;1276;21968;-76
2021/12/15 05:17:37;;;;;;;67.50;50.80;;;;;;;5.20;81.83;101691.90;108452;1282;21989;-76
2021/12/15 05:20:11;;;;;;;75.20;53.80;;;;;;;5.20;81.78;101691.39;108288;1282;23679;-76
2021/12/15 05:22:45;;;;;;;69.90;50.20;;;;;;;5.20;81.83;101695.73;108156;1288;22102;-76
2021/12/15 05:25:14;;;;;;;;;;;;;;;5.19;81.78;101700.15;108045;1288;22925;-76
2021/12/15 05:27:48;;;;;;;65.70;45.60;;;;;;;5.09;81.82;101703.44;108060;1288;23766;-75
2021/12/15 05:30:18;;;;;;;73.10;50.90;;;;;;;5.08;82.06;101704.18;107647;1294;21990;-75
2021/12/15 05:32:49;;;;;;;70.40;50.50;;;;;;;5.11;82.04;101701.40;107604;1294;22442;-75
2021/12/15 05:35:23;;;;;;;69.20;49.50;;;;;;;5.13;82.07;101698.84;107066;1300;22095;-76
2021/12/15 05:37:58;;;;;;;70.60;51.50;;;;;;;5.13;81.91;101698.14;107214;1298;23418;-75
2021/12/15 05:40:29;;;;;;;72.50;52.80;;;;;;;5.13;81.99;101696.17;107443;1292;22481;-75
2021/12/15 05:43:00;;;;;;;78.70;57.00;;;;;;;5.14;82.11;101693.85;108018;1288;23085;-75
2021/12/15 05:45:33;;;;;;;74.50;54.80;;;;;;;5.15;82.00;101689.63;108039;1288;21996;-75
2021/12/15 05:48:08;;;;;;;71.30;50.10;;;;;;;5.16;82.01;101692.69;107854;1288;21990;-76
2021/12/15 05:50:42;;;;;;;70.80;48.10;;;;;;;5.19;82.14;101691.24;107636;1294;22016;-75
2021/12/15 05:53:12;;;;;;;68.60;48.80;;;;;;;5.22;82.18;101687.40;107790;1289;22151;-76
2021/12/15 05:55:43;;;;;;;63.40;45.70;;;;;;;5.24;82.24;101685.85;107667;1294;22011;-77
2021/12/15 05:58:12;;;;;;;69.30;48.10;;;;;;;5.27;82.25;101685.17;107671;1294;22803;-79
2021/12/15 06:00:44;;;;;;;64.00;46.90;;;;;;;5.29;82.36;101687.09;107618;1290;22132;-76
2021/12/15 06:03:14;;;;;;;68.50;46.90;;;;;;;5.32;82.18;101686.05;107635;1294;23589;-76
2021/12/15 06:05:44;;;;;;;62.20;46.60;;;;;;;5.30;81.97;101685.99;107643;1286;23698;-76
2021/12/15 06:08:16;;;;;;;61.40;46.60;;;;;;;5.28;81.86;101691.91;108039;1284;21999;-76
2021/12/15 06:10:45;;;;;;;57.00;41.20;;;;;;;5.27;82.03;101695.30;108414;1283;22155;-76
2021/12/15 06:13:14;;;;;;;63.40;43.40;;;;;;;5.27;82.16;101691.63;108359;1279;23160;-76
2021/12/15 06:15:45;;;;;;;53.10;40.90;;;;;;;5.30;82.21;101699.30;108389;1280;22654;-77
2021/12/15 06:18:19;;;;;;;60.00;43.40;;;;;;;5.32;82.22;101697.25;108438;1285;21995;-77
2021/12/15 06:20:51;;;;;;;58.30;42.10;;;;;;;5.32;82.19;101701.27;108345;1283;21992;-76
2021/12/15 06:23:23;;;;;;;53.50;37.50;;;;;;;5.31;82.26;101700.44;108401;1283;23824;-79
2021/12/15 06:26:00;;;;;;;57.10;40.90;;;;;;;5.33;82.29;101710.27;108396;1283;22022;-76
2021/12/15 06:28:38;;;;;;;58.90;41.70;;;;;;;5.35;82.40;101717.48;108293;1283;21987;-75
2021/12/15 06:31:38;;;;;;;53.50;39.40;;;;;;;5.38;82.42;101719.89;108644;1285;22653;-84
2021/12/15 06:34:25;;;;;;;54.20;39.90;;;;;;;5.41;82.53;101718.64;108997;1278;22390;-82
2021/12/15 06:37:24;;;;;;;60.30;40.80;;;;;;;5.43;82.52;101722.15;109070;1277;22381;-84
2021/12/15 06:40:07;;;;;;;59.20;46.10;;;;;;;5.46;82.52;101726.19;109012;1276;24391;-83
2021/12/15 06:42:47;;;;;;;54.60;43.50;;;;;;;5.48;82.51;101733.20;108805;1277;23771;-79
2021/12/15 06:45:24;;;;;;;64.20;48.40;;;;;;;5.51;82.50;101734.75;108902;1277;22003;-78
2021/12/15 06:59:35;;;;;;;56.40;43.80;;;;;;;5.52;82.03;101751.11;108215;1288;22881;-77
2021/12/15 07:02:07;;;;;;;57.10;42.40;;;;;;;5.52;82.07;101758.13;108070;1288;23860;-77
2021/12/15 07:04:36;;;;;;;;;;;;;;;5.52;82.13;101760.92;108164;1288;22011;-76
2021/12/15 07:07:09;;;;;;;59.80;43.40;;;;;;;5.42;82.10;101764.70;108191;1285;23903;-76
2021/12/15 07:09:39;;;;;;;60.80;43.40;;;;;;;5.40;82.19;101760.30;108262;1284;23189;-79
2021/12/15 07:12:09;;;;;;;64.60;49.50;;;;;;;5.42;82.28;101761.73;108367;1283;23634;-77
2021/12/15 07:14:47;;;;;;;56.70;44.30;;;;;;;5.43;82.27;101762.89;108367;1283;22269;-78
2021/12/15 07:17:21;;;;;;;55.60;41.80;;;;;;;5.44;82.23;101760.73;108249;1283;23178;-78
2021/12/15 07:25:14;;;;;;;64.50;47.40;;;;;;;5.46;82.35;101766.20;108467;1283;23497;-77
2021/12/15 07:27:44;;;;;;;70.20;51.10;;;;;;;5.47;82.39;101762.96;108442;1283;21992;-76
2021/12/15 07:30:19;;;;;;;67.30;46.20;;;;;;;5.47;82.35;101765.75;108463;1283;23036;-77
2021/12/15 07:32:52;;;;;;;68.80;48.30;;;;;;;5.47;82.27;101761.95;108436;1283;23611;-77
2021/12/15 07:35:34;;;;;;;67.10;48.30;;;;;;;5.48;82.40;101758.94;108465;1283;22041;-79
2021/12/15 07:38:11;;;;;;;69.60;49.10;;;;;;;5.49;82.48;101756.02;108044;1288;22454;-77
2021/12/15 07:40:47;;;;;;;69.80;51.70;;;;;;;5.53;82.58;101755.59;108034;1288;24149;-77
2021/12/15 07:43:26;;;;;;;72.90;51.60;;;;;;;5.58;82.58;101754.90;108061;1288;23727;-75
2021/12/15 07:46:05;;;;;;;67.50;49.20;;;;;;;5.62;82.57;101756.19;108005;1288;22367;-80
2021/12/15 07:48:39;;;;;;;69.70;50.10;;;;;;;5.66;82.50;101755.27;108170;1288;23042;-77
2021/12/15 07:51:11;;;;;;;73.40;55.10;;;;;;;5.67;82.46;101754.84;108390;1288;22286;-79
2021/12/15 07:53:46;;;;;;;69.40;51.70;;;;;;;5.68;82.31;101751.46;108633;1283;21995;-77
2021/12/15 07:56:18;;;;;;;68.40;51.70;;;;;;;5.69;82.32;101752.63;108558;1278;23013;-79
2021/12/15 07:58:48;;;;;;;68.60;55.40;;;;;;;5.71;82.24;101749.34;108965;1276;23587;-78
2021/12/15 08:01:23;;;;;;;68.30;53.30;;;;;;;5.73;82.30;101742.73;108832;1277;22022;-81
2021/12/15 08:03:57;;;;;;;69.30;50.60;;;;;;;5.77;82.45;101745.80;108677;1277;23046;-76
2021/12/15 08:06:27;;;;;;;68.20;52.20;;;;;;;5.81;82.46;101751.29;108648;1277;21960;-79
2021/12/15 08:09:00;;;;;;;75.80;54.20;;;;;;;5.86;82.40;101753.61;108880;1277;22185;-77
2021/12/15 08:11:42;;;;;;;74.40;56.60;;;;;;;5.91;82.36;101760.79;108846;1275;23598;-76
2021/12/15 08:14:27;;;;;;;83.50;58.30;;;;;;;5.93;82.21;101767.15;108778;1278;22012;-76
2021/12/15 08:17:11;;;;;;;83.00;61.70;;;;;;;5.95;82.16;101769.46;108723;1278;21984;-77
2021/12/15 08:19:44;;;;;;;75.30;61.00;;;;;;;5.98;82.21;101778.71;109013;1274;22047;-77
2021/12/15 08:22:31;;;;;;;;;;;;;;;5.99;82.04;101783.02;108521;1281;22036;-78
2021/12/15 08:25:02;;;;;;;80.00;53.90;;;;;;;5.91;82.00;101783.87;108481;1280;23047;-78
2021/12/15 08:27:44;;;;;;;68.60;49.90;;;;;;;5.94;82.28;101788.20;108184;1286;23694;-77
2021/12/15 08:30:24;;;;;;;64.60;48.50;;;;;;;6.00;82.50;101785.52;107828;1290;23643;-78
2021/12/15 08:33:10;;;;;;;75.40;51.80;;;;;;;6.08;82.50;101792.73;107975;1290;23699;-77
2021/12/15 08:35:48;;;;;;;72.40;49.30;;;;;;;6.10;82.26;101788.89;107936;1292;23923;-77
2021/12/15 08:38:21;;;;;;;74.40;57.60;;;;;;;6.07;81.89;101790.69;107909;1287;23694;-77
2021/12/15 08:41:07;;;;;;;86.00;63.60;;;;;;;6.07;82.06;101784.90;108103;1287;22761;-77
2021/12/15 08:43:48;;;;;;;90.40;66.80;;;;;;;6.10;82.16;101786.06;107737;1294;23632;-78
2021/12/15 08:46:36;;;;;;;78.00;57.80;;;;;;;6.13;82.13;101793.05;108052;1287;21991;-78
2021/12/15 08:49:21;;;;;;;72.70;53.30;;;;;;;6.15;82.08;101799.03;108420;1282;21988;-79
2021/12/15 08:51:58;;;;;;;73.00;53.30;;;;;;;6.16;81.95;101799.89;108221;1286;22009;-77
2021/12/15 08:54:36;;;;;;;84.00;60.50;;;;;;;6.16;81.81;101804.23;107871;1294;23754;-77
2021/12/15 08:57:10;;;;;;;82.70;57.80;;;;;;;6.15;81.80;101808.48;108106;1294;22108;-81
2021/12/15 08:59:45;;;;;;;70.40;51.90;;;;;;;6.17;81.78;101805.71;107826;1295;22178;-77
2021/12/15 09:02:31;;;;;;;72.10;51.50;;;;;;;6.18;81.83;101806.54;108254;1287;24441;-80
2021/12/15 09:05:20;;;;;;;70.10;52.40;;;;;;;6.21;81.80;101804.95;108094;1287;22015;-79
2021/12/15 09:07:56;;;;;;;70.30;51.60;;;;;;;6.22;81.69;101802.24;108110;1288;22125;-79
2021/12/15 09:10:45;;;;;;;67.80;54.60;;;;;;;6.24;81.96;101802.46;108284;1279;22094;-79
2021/12/15 09:13:30;;;;;;;69.50;52.60;;;;;;;6.28;81.96;101800.23;108708;1275;21983;-79
2021/12/15 09:16:21;;;;;;;72.80;53.30;;;;;;;6.33;82.01;101800.42;108893;1275;21969;-79
2021/12/15 09:19:05;;;;;;;72.60;55.20;;;;;;;6.37;81.88;101799.69;109125;1275;23149;-80
2021/12/15 09:21:39;;;;;;;69.60;57.30;;;;;;;6.40;82.02;101800.70;108936;1274;22946;-81
2021/12/15 09:24:15;;;;;;;67.50;54.70;;;;;;;6.46;82.15;101797.30;108920;1275;22203;-79
2021/12/15 09:26:55;;;;;;;61.90;52.20;;;;;;;6.51;82.00;101794.81;108628;1275;21993;-78
2021/12/15 09:29:29;;;;;;;64.00;51.30;;;;;;;6.52;81.64;101794.08;108883;1275;22793;-77
2021/12/15 09:32:09;;;;;;;75.90;64.70;;;;;;;6.53;81.67;101789.95;108577;1284;22020;-77
2021/12/15 09:34:42;;;;;;;77.50;62.20;;;;;;;6.55;81.74;101786.31;108305;1285;22657;-76
2021/12/15 09:37:20;;;;;;;68.60;57.30;;;;;;;6.56;81.55;101776.45;108227;1284;23049;-77
2021/12/15 09:40:18;;;;;;;67.70;50.50;;;;;;;6.53;81.37;101772.11;108117;1287;24099;-78
2021/12/15 09:42:55;;;;;;;66.60;51.80;;;;;;;6.48;81.28;101763.36;108220;1288;21989;-79
2021/12/15 09:57:23;;;;;;;93.50;78.00;;;;;;;6.50;81.58;101749.39;108281;1288;22046;-80
2021/12/15 10:03:20;;;;;;;;;;;;;;;;;;;;;
2021/12/15 10:06:05;;;;;;;108.70;91.40;;;;;;;6.54;81.81;101742.31;108313;1288;21989;-80
2021/12/15 10:11:55;;;;;;;79.60;58.50;;;;;;;6.59;81.78;101745.05;107842;1290;22041;-78
2021/12/15 10:18:05;;;;;;;71.50;49.50;;;;;;;6.71;81.87;101755.83;107964;1292;22012;-80
2021/12/15 10:20:58;;;;;;;67.20;50.50;;;;;;;6.75;81.82;101761.11;107951;1292;22090;-79
2021/12/15 10:23:57;;;;;;;64.50;47.10;;;;;;;6.78;81.66;101763.16;107749;1294;23711;-79
2021/12/15 10:26:34;;;;;;;65.40;47.30;;;;;;;6.83;81.63;101759.84;107728;1293;22020;-75
2021/12/15 10:29:15;;;;;;;59.80;44.60;;;;;;;6.87;81.65;101755.91;107040;1301;23720;-76
2021/12/15 10:32:08;;;;;;;64.50;49.40;;;;;;;6.92;81.73;101758.02;107137;1298;22077;-76
2021/12/15 10:39:01;;;;;;;74.50;58.50;;;;;;;6.98;81.41;101749.02;107347;1297;22075;-77
2021/12/15 10:41:44;;;;;;;75.20;57.80;;;;;;;6.97;81.29;101743.42;107222;1297;23077;-77
2021/12/15 10:44:32;;;;;;;68.30;52.80;;;;;;;7.01;81.33;101746.80;107384;1291;22221;-84
2021/12/15 10:52:28;;;;;;;67.10;57.80;;;;;;;7.02;81.31;101750.96;108429;1291;22010;-86
2021/12/15 10:55:43;;;;;;;68.80;51.20;;;;;;;7.04;81.15;101748.57;109017;1283;22018;-85
2021/12/15 11:02:32;;;;;;;63.20;47.20;;;;;;;7.10;81.01;101750.72;109483;1283;24338;-88
2021/12/15 11:05:35;;;;;;;69.60;51.10;;;;;;;7.12;80.93;101747.80;109450;1285;22018;-87
2021/12/15 11:08:43;;;;;;;61.90;48.50;;;;;;;7.16;81.01;101746.80;109629;1283;24315;-87
2021/12/15 11:12:11;;;;;;;59.90;46.80;;;;;;;7.19;81.02;101743.61;109643;1284;22182;-88
2021/12/15 11:15:53;;;;;;;58.20;42.80;;;;;;;7.25;81.08;101745.23;109800;1286;22470;-86
2021/12/15 11:19:21;;;;;;;62.00;47.30;;;;;;;7.32;81.04;101741.25;109755;1285;22052;-87
2021/12/15 11:22:45;;;;;;;63.60;51.10;;;;;;;7.36;80.81;101741.64;109878;1286;22044;-89
2021/12/15 11:26:24;;;;;;;68.50;56.30;;;;;;;7.40;80.93;101745.73;109947;1278;22052;-86
2021/12/15 11:30:08;;;;;;;81.20;63.90;;;;;;;7.42;80.71;101744.40;109741;1288;22080;-86
2021/12/15 11:33:33;;;;;;;63.30;44.80;;;;;;;7.45;80.85;101741.70;109599;1288;22724;-87
2021/12/15 11:37:07;;;;;;;;;;;;;;;;;;;;;
2021/12/15 11:40:14;;;;;;;58.40;43.20;;;;;;;7.44;80.65;101734.92;109860;1278;22165;-88
2021/12/15 11:43:59;;;;;;;66.10;48.40;;;;;;;7.48;80.65;101734.46;109774;1289;23078;-88
2021/12/15 11:47:56;;;;;;;;;;;;;;;;;;;;;
2021/12/15 12:10:44;;;;;;;78.10;64.80;;;;;;;7.68;80.38;101719.14;109563;1286;22048;-85
2021/12/15 12:13:30;;;;;;;72.50;59.40;;;;;;;7.69;80.20;101721.36;108845;1286;21984;-84
2021/12/15 12:16:23;;;;;;;63.70;52.90;;;;;;;7.69;80.21;101726.41;108407;1286;23062;-83
2021/12/15 12:19:04;;;;;;;57.00;50.50;;;;;;;7.69;80.18;101725.37;108410;1288;22051;-83
2021/12/15 12:21:41;;;;;;;57.90;49.60;;;;;;;7.70;80.34;101722.32;108337;1288;21991;-82
2021/12/15 12:24:17;;;;;;;59.30;53.00;;;;;;;7.70;80.17;101718.99;108124;1289;21988;-82
2021/12/15 12:26:55;;;;;;;64.30;53.20;;;;;;;7.71;80.10;101718.70;108316;1288;22323;-82
2021/12/15 12:29:40;;;;;;;;;;;;;;;;;;;;;
2021/12/15 12:32:26;;;;;;;56.50;46.50;;;;;;;7.65;79.76;101724.45;108040;1292;22032;-81
2021/12/15 12:34:59;;;;;;;65.20;54.00;;;;;;;7.58;79.75;101727.07;107742;1295;22036;-82
2021/12/15 12:37:40;;;;;;;58.90;51.70;;;;;;;7.54;79.89;101722.44;107887;1294;22001;-81
2021/12/15 12:40:33;;;;;;;54.20;45.40;;;;;;;7.52;80.05;101726.09;107751;1293;23711;-81
2021/12/15 12:43:31;;;;;;;51.40;45.80;;;;;;;7.49;80.03;101723.66;107836;1295;23749;-82
2021/12/15 12:46:24;;;;;;;58.50;49.80;;;;;;;7.47;80.07;101718.98;107297;1301;22081;-81
2021/12/15 13:01:43;;;;;;;47.40;41.30;;;;;;;7.48;80.63;101723.77;107362;1297;22025;-82
2021/12/15 13:04:46;;;;;;;46.50;40.50;;;;;;;7.52;80.76;101721.73;107657;1292;22024;-81
2021/12/15 13:08:37;;;;;;;56.00;46.90;;;;;;;7.53;80.63;101717.63;107907;1292;22510;-81
2021/12/15 13:11:51;;;;;;;51.10;43.50;;;;;;;7.53;80.70;101716.17;107237;1303;22222;-82
2021/12/15 13:14:36;;;;;;;51.60;44.00;;;;;;;7.58;80.87;101718.45;107149;1304;22016;-81
2021/12/15 13:17:21;;;;;;;;;;;;;;;7.63;80.81;101722.66;106557;1308;22554;-81
2021/12/15 13:19:58;;;;;;;51.00;42.50;;;;;;;7.58;80.81;101725.84;106165;1309;22050;-80
2021/12/15 13:22:42;;;;;;;47.70;42.50;;;;;;;7.61;80.84;101729.32;106250;1309;22082;-80
2021/12/15 13:28:43;;;;;;;43.50;38.50;;;;;;;7.66;80.70;101728.58;105935;1315;22343;-80
2021/12/15 13:31:55;;;;;;;52.40;44.60;;;;;;;7.66;80.61;101731.17;106274;1307;24353;-80
2021/12/15 13:34:49;;;;;;;75.00;53.50;;;;;;;7.65;80.34;101733.75;106183;1312;22018;-82
2021/12/15 13:38:05;;;;;;;75.70;56.50;;;;;;;7.64;80.38;101739.11;106708;1273;21991;-79
2021/12/15 13:41:05;;;;;;;71.50;49.30;;;;;;;7.64;80.38;101744.70;108163;1286;23596;-80
2021/12/15 13:44:33;;;;;;;62.10;46.30;;;;;;;7.68;80.47;101746.87;108471;1284;22117;-80
2021/12/15 13:47:43;;;;;;;55.30;46.40;;;;;;;7.68;80.32;101742.14;107776;1292;23602;-79
2021/12/15 13:50:27;;;;;;;48.20;42.10;;;;;;;7.67;80.26;101745.45;107271;1298;23617;-81
2021/12/15 13:53:03;;;;;;;51.40;46.00;;;;;;;7.69;80.39;101747.05;107589;1298;23600;-78
2021/12/15 13:55:40;;;;;;;46.10;41.40;;;;;;;7.71;80.29;101745.06;107287;1295;22097;-79
2021/12/15 13:58:17;;;;;;;41.80;37.40;;;;;;;7.71;80.33;101741.31;107320;1298;22021;-78
2021/12/15 14:00:58;;;;;;;40.70;36.40;;;;;;;7.70;80.09;101738.92;107522;1296;23079;-77
2021/12/15 14:03:36;;;;;;;38.90;34.70;;;;;;;7.70;80.23;101745.82;106928;1301;23666;-76
2021/12/15 14:06:18;;;;;;;40.10;35.90;;;;;;;7.69;80.07;101746.77;106896;1300;23065;-77
2021/12/15 14:09:04;;;;;;;40.40;36.40;;;;;;;7.69;80.15;101744.63;106508;1307;23743;-77
2021/12/15 14:11:34;;;;;;;38.80;34.40;;;;;;;7.70;80.15;101746.83;106387;1307;22429;-77
2021/12/15 14:14:24;;;;;;;41.30;37.10;;;;;;;7.70;80.12;101747.20;106272;1304;22050;-77
2021/12/15 14:16:57;;;;;;;42.00;37.80;;;;;;;7.70;80.18;101743.33;106770;1304;22021;-77
2021/12/15 14:19:36;;;;;;;40.10;36.10;;;;;;;7.70;80.15;101744.20;106735;1301;22131;-77
2021/12/15 14:22:09;;;;;;;39.90;35.90;;;;;;;7.70;80.05;101742.60;105953;1306;22432;-77